sensor_id;sensor_type;location;lat;lon;timestamp;temperature;humidity
22974;DHT22;11653;50.848;4.584;2023-06-10T00:00:13;20.50;99.90
22974;DHT22;11653;50.848;4.584;2023-06-10T00:02:40;20.50;99.90
22974;DHT22;11653;50.848;4.584;2023-06-10T00:05:07;20.40;99.90
22974;DHT22;11653;50.848;4.584;2023-06-10T00:07:35;20.30;99.90
22974;DHT22;11653;50.848;4.584;2023-06-10T00:10:05;20.30;99.90
22974;DHT22;11653;50.848;4.584;2023-06-10T00:12:31;20.30;99.90
22974;DHT22;11653;50.848;4.584;2023-06-10T00:15:03;20.30;99.90
22974;DHT22;11653;50.848;4.584;2023-06-10T00:17:30;20.30;99.90
22974;DHT22;11653;50.848;4.584;2023-06-10T00:19:56;20.30;99.90
22974;DHT22;11653;50.848;4.584;2023-06-10T00:22:23;20.20;99.90
22974;DHT22;11653;50.848;4.584;2023-06-10T00:24:49;20.20;99.90
22974;DHT22;11653;50.848;4.584;2023-06-10T00:27:16;20.20;99.90
22974;DHT22;11653;50.848;4.584;2023-06-10T00:29:42;20.10;99.90
22974;DHT22;11653;50.848;4.584;2023-06-10T00:32:07;20.10;99.90
22974;DHT22;11653;50.848;4.584;2023-06-10T00:34:33;20.10;99.90
22974;DHT22;11653;50.848;4.584;2023-06-10T00:36:59;20.00;99.90
22974;DHT22;11653;50.848;4.584;2023-06-10T00:39:25;20.00;99.90
22974;DHT22;11653;50.848;4.584;2023-06-10T00:41:50;19.90;99.90
22974;DHT22;11653;50.848;4.584;2023-06-10T00:44:16;19.90;99.90
22974;DHT22;11653;50.848;4.584;2023-06-10T00:46:42;19.80;99.90
22974;DHT22;11653;50.848;4.584;2023-06-10T00:49:08;19.80;99.90
22974;DHT22;11653;50.848;4.584;2023-06-10T00:51:35;19.80;99.90
22974;DHT22;11653;50.848;4.584;2023-06-10T00:54:01;19.80;99.90
22974;DHT22;11653;50.848;4.584;2023-06-10T00:56:27;19.70;99.90
22974;DHT22;11653;50.848;4.584;2023-06-10T00:58:54;19.70;99.90
22974;DHT22;11653;50.848;4.584;2023-06-10T01:01:20;19.70;99.90
22974;DHT22;11653;50.848;4.584;2023-06-10T01:03:45;19.60;99.90
22974;DHT22;11653;50.848;4.584;2023-06-10T01:13:05;19.60;99.90
22974;DHT22;11653;50.848;4.584;2023-06-10T01:15:34;19.50;99.90
22974;DHT22;11653;50.848;4.584;2023-06-10T01:18:04;19.50;99.90
22974;DHT22;11653;50.848;4.584;2023-06-10T01:20:35;19.50;99.90
22974;DHT22;11653;50.848;4.584;2023-06-10T01:23:03;19.50;99.90
22974;DHT22;11653;50.848;4.584;2023-06-10T01:25:29;19.50;99.90
22974;DHT22;11653;50.848;4.584;2023-06-10T01:28:02;19.40;99.90
22974;DHT22;11653;50.848;4.584;2023-06-10T01:30:32;19.40;99.90
22974;DHT22;11653;50.848;4.584;2023-06-10T01:33:03;19.40;99.90
22974;DHT22;11653;50.848;4.584;2023-06-10T01:35:33;19.40;99.90
22974;DHT22;11653;50.848;4.584;2023-06-10T01:38:01;19.40;99.90
22974;DHT22;11653;50.848;4.584;2023-06-10T01:40:28;19.40;99.90
22974;DHT22;11653;50.848;4.584;2023-06-10T01:42:54;19.30;99.90
22974;DHT22;11653;50.848;4.584;2023-06-10T01:45:20;19.30;99.90
22974;DHT22;11653;50.848;4.584;2023-06-10T01:47:46;19.20;99.90
22974;DHT22;11653;50.848;4.584;2023-06-10T01:50:11;19.20;99.90
22974;DHT22;11653;50.848;4.584;2023-06-10T01:52:37;19.20;99.90
22974;DHT22;11653;50.848;4.584;2023-06-10T01:55:07;19.20;99.90
22974;DHT22;11653;50.848;4.584;2023-06-10T01:57:32;19.20;99.90
22974;DHT22;11653;50.848;4.584;2023-06-10T01:59:58;19.20;99.90
22974;DHT22;11653;50.848;4.584;2023-06-10T02:02:23;19.20;99.90
22974;DHT22;11653;50.848;4.584;2023-06-10T02:04:50;19.20;99.90
22974;DHT22;11653;50.848;4.584;2023-06-10T02:07:15;19.10;99.90
22974;DHT22;11653;50.848;4.584;2023-06-10T02:09:41;19.10;99.90
22974;DHT22;11653;50.848;4.584;2023-06-10T02:12:07;19.10;99.90
22974;DHT22;11653;50.848;4.584;2023-06-10T02:14:33;19.10;99.90
22974;DHT22;11653;50.848;4.584;2023-06-10T02:16:59;19.00;99.90
22974;DHT22;11653;50.848;4.584;2023-06-10T02:19:24;19.10;99.90
22974;DHT22;11653;50.848;4.584;2023-06-10T02:21:52;19.10;99.90
22974;DHT22;11653;50.848;4.584;2023-06-10T02:24:18;19.00;99.90
22974;DHT22;11653;50.848;4.584;2023-06-10T02:26:43;19.00;99.90
22974;DHT22;11653;50.848;4.584;2023-06-10T02:29:09;19.10;99.90
22974;DHT22;11653;50.848;4.584;2023-06-10T02:31:35;19.10;99.90
22974;DHT22;11653;50.848;4.584;2023-06-10T02:34:01;19.10;99.90
22974;DHT22;11653;50.848;4.584;2023-06-10T02:36:28;19.10;99.90
22974;DHT22;11653;50.848;4.584;2023-06-10T02:38:54;19.20;99.90
22974;DHT22;11653;50.848;4.584;2023-06-10T02:41:19;19.20;99.90
22974;DHT22;11653;50.848;4.584;2023-06-10T02:43:47;19.10;99.90
22974;DHT22;11653;50.848;4.584;2023-06-10T02:46:12;19.20;99.90
22974;DHT22;11653;50.848;4.584;2023-06-10T02:48:42;19.10;99.90
22974;DHT22;11653;50.848;4.584;2023-06-10T02:51:09;19.10;99.90
22974;DHT22;11653;50.848;4.584;2023-06-10T02:53:35;19.10;99.90
22974;DHT22;11653;50.848;4.584;2023-06-10T02:56:01;19.10;99.90
22974;DHT22;11653;50.848;4.584;2023-06-10T02:58:27;19.10;99.90
22974;DHT22;11653;50.848;4.584;2023-06-10T03:00:53;19.00;99.90
22974;DHT22;11653;50.848;4.584;2023-06-10T03:03:18;19.00;99.90
22974;DHT22;11653;50.848;4.584;2023-06-10T03:05:44;19.00;99.90
22974;DHT22;11653;50.848;4.584;2023-06-10T03:08:10;19.00;99.90
22974;DHT22;11653;50.848;4.584;2023-06-10T03:10:35;19.00;99.90
22974;DHT22;11653;50.848;4.584;2023-06-10T03:13:01;19.00;99.90
22974;DHT22;11653;50.848;4.584;2023-06-10T03:15:27;19.00;99.90
22974;DHT22;11653;50.848;4.584;2023-06-10T03:17:54;19.00;99.90
22974;DHT22;11653;50.848;4.584;2023-06-10T03:20:20;19.00;99.90
22974;DHT22;11653;50.848;4.584;2023-06-10T03:22:47;18.90;99.90
22974;DHT22;11653;50.848;4.584;2023-06-10T03:25:12;18.90;99.90
22974;DHT22;11653;50.848;4.584;2023-06-10T03:27:42;19.00;99.90
22974;DHT22;11653;50.848;4.584;2023-06-10T03:30:09;19.00;99.90
22974;DHT22;11653;50.848;4.584;2023-06-10T03:32:34;19.00;99.90
22974;DHT22;11653;50.848;4.584;2023-06-10T03:35:01;19.00;99.90
22974;DHT22;11653;50.848;4.584;2023-06-10T03:37:26;19.10;99.90
22974;DHT22;11653;50.848;4.584;2023-06-10T03:39:52;19.00;99.90
22974;DHT22;11653;50.848;4.584;2023-06-10T03:42:18;19.10;99.90
22974;DHT22;11653;50.848;4.584;2023-06-10T03:44:43;19.10;99.90
22974;DHT22;11653;50.848;4.584;2023-06-10T03:47:09;19.10;99.90
22974;DHT22;11653;50.848;4.584;2023-06-10T03:49:35;19.10;99.90
22974;DHT22;11653;50.848;4.584;2023-06-10T03:52:01;19.20;99.90
22974;DHT22;11653;50.848;4.584;2023-06-10T03:54:27;19.20;99.90
22974;DHT22;11653;50.848;4.584;2023-06-10T03:56:53;19.20;99.90
22974;DHT22;11653;50.848;4.584;2023-06-10T03:59:18;19.30;99.90
22974;DHT22;11653;50.848;4.584;2023-06-10T04:01:44;19.30;99.90
22974;DHT22;11653;50.848;4.584;2023-06-10T04:04:13;19.40;99.90
22974;DHT22;11653;50.848;4.584;2023-06-10T04:06:40;19.20;99.90
22974;DHT22;11653;50.848;4.584;2023-06-10T04:09:06;19.10;99.90
22974;DHT22;11653;50.848;4.584;2023-06-10T04:11:33;19.10;99.90
22974;DHT22;11653;50.848;4.584;2023-06-10T04:13:58;19.10;99.90
22974;DHT22;11653;50.848;4.584;2023-06-10T04:16:24;19.10;99.90
22974;DHT22;11653;50.848;4.584;2023-06-10T04:18:50;19.20;99.90
22974;DHT22;11653;50.848;4.584;2023-06-10T04:21:16;19.40;99.90
22974;DHT22;11653;50.848;4.584;2023-06-10T04:23:41;19.60;99.90
22974;DHT22;11653;50.848;4.584;2023-06-10T04:26:07;19.90;99.90
22974;DHT22;11653;50.848;4.584;2023-06-10T04:28:33;20.20;99.90
22974;DHT22;11653;50.848;4.584;2023-06-10T04:30:59;20.30;99.90
22974;DHT22;11653;50.848;4.584;2023-06-10T04:33:24;20.40;99.90
22974;DHT22;11653;50.848;4.584;2023-06-10T04:35:50;20.30;99.90
22974;DHT22;11653;50.848;4.584;2023-06-10T04:38:16;20.20;99.90
22974;DHT22;11653;50.848;4.584;2023-06-10T04:40:42;20.30;99.90
22974;DHT22;11653;50.848;4.584;2023-06-10T04:43:07;20.50;99.90
22974;DHT22;11653;50.848;4.584;2023-06-10T04:45:33;20.70;99.90
22974;DHT22;11653;50.848;4.584;2023-06-10T04:47:59;20.90;99.90
22974;DHT22;11653;50.848;4.584;2023-06-10T04:50:24;21.20;99.90
22974;DHT22;11653;50.848;4.584;2023-06-10T04:52:51;21.40;99.90
22974;DHT22;11653;50.848;4.584;2023-06-10T04:55:17;21.70;99.90
22974;DHT22;11653;50.848;4.584;2023-06-10T04:57:42;21.90;99.90
22974;DHT22;11653;50.848;4.584;2023-06-10T05:00:08;22.10;99.90
22974;DHT22;11653;50.848;4.584;2023-06-10T05:02:34;22.30;99.90
22974;DHT22;11653;50.848;4.584;2023-06-10T05:05:00;22.50;99.90
22974;DHT22;11653;50.848;4.584;2023-06-10T05:07:25;22.80;99.90
22974;DHT22;11653;50.848;4.584;2023-06-10T05:09:51;23.00;99.90
22974;DHT22;11653;50.848;4.584;2023-06-10T05:12:17;23.30;99.90
22974;DHT22;11653;50.848;4.584;2023-06-10T05:14:42;23.60;99.90
22974;DHT22;11653;50.848;4.584;2023-06-10T05:17:10;23.80;99.90
22974;DHT22;11653;50.848;4.584;2023-06-10T05:19:35;24.10;99.90
22974;DHT22;11653;50.848;4.584;2023-06-10T05:22:02;24.40;99.90
22974;DHT22;11653;50.848;4.584;2023-06-10T05:24:28;24.60;99.20
22974;DHT22;11653;50.848;4.584;2023-06-10T05:26:54;24.80;98.70
22974;DHT22;11653;50.848;4.584;2023-06-10T05:29:19;25.00;98.00
22974;DHT22;11653;50.848;4.584;2023-06-10T05:31:45;25.10;97.70
22974;DHT22;11653;50.848;4.584;2023-06-10T05:34:11;25.20;97.20
22974;DHT22;11653;50.848;4.584;2023-06-10T05:36:37;25.40;97.00
22974;DHT22;11653;50.848;4.584;2023-06-10T05:39:03;25.40;96.30
22974;DHT22;11653;50.848;4.584;2023-06-10T05:41:28;25.50;95.90
22974;DHT22;11653;50.848;4.584;2023-06-10T05:43:54;25.50;96.00
22974;DHT22;11653;50.848;4.584;2023-06-10T05:46:20;25.80;95.60
22974;DHT22;11653;50.848;4.584;2023-06-10T05:48:46;26.10;95.00
22974;DHT22;11653;50.848;4.584;2023-06-10T05:51:11;26.30;94.00
22974;DHT22;11653;50.848;4.584;2023-06-10T05:53:37;26.20;93.80
22974;DHT22;11653;50.848;4.584;2023-06-10T05:56:04;26.20;94.30
22974;DHT22;11653;50.848;4.584;2023-06-10T05:58:29;26.30;93.40
22974;DHT22;11653;50.848;4.584;2023-06-10T06:00:55;26.50;93.30
22974;DHT22;11653;50.848;4.584;2023-06-10T06:03:21;26.60;93.00
22974;DHT22;11653;50.848;4.584;2023-06-10T06:05:46;26.90;93.00
22974;DHT22;11653;50.848;4.584;2023-06-10T06:08:12;27.30;92.30
22974;DHT22;11653;50.848;4.584;2023-06-10T06:10:44;27.50;91.40
22974;DHT22;11653;50.848;4.584;2023-06-10T06:13:10;27.20;91.50
22974;DHT22;11653;50.848;4.584;2023-06-10T06:15:36;27.10;91.40
22974;DHT22;11653;50.848;4.584;2023-06-10T06:18:01;27.40;91.10
22974;DHT22;11653;50.848;4.584;2023-06-10T06:20:27;27.70;90.60
22974;DHT22;11653;50.848;4.584;2023-06-10T06:22:53;27.80;90.00
22974;DHT22;11653;50.848;4.584;2023-06-10T06:25:18;28.00;89.40
22974;DHT22;11653;50.848;4.584;2023-06-10T06:27:44;28.30;88.70
22974;DHT22;11653;50.848;4.584;2023-06-10T06:30:10;28.50;86.80
22974;DHT22;11653;50.848;4.584;2023-06-10T06:32:37;28.10;86.00
22974;DHT22;11653;50.848;4.584;2023-06-10T06:35:03;28.20;86.40
22974;DHT22;11653;50.848;4.584;2023-06-10T06:37:30;28.40;86.80
22974;DHT22;11653;50.848;4.584;2023-06-10T06:39:55;28.90;84.90
22974;DHT22;11653;50.848;4.584;2023-06-10T06:42:21;28.80;83.40
22974;DHT22;11653;50.848;4.584;2023-06-10T06:44:47;28.80;84.50
22974;DHT22;11653;50.848;4.584;2023-06-10T06:47:13;29.30;83.10
22974;DHT22;11653;50.848;4.584;2023-06-10T06:49:39;29.50;81.30
22974;DHT22;11653;50.848;4.584;2023-06-10T06:52:05;29.50;80.00
22974;DHT22;11653;50.848;4.584;2023-06-10T06:54:31;30.00;80.00
22974;DHT22;11653;50.848;4.584;2023-06-10T06:56:57;30.00;77.70
22974;DHT22;11653;50.848;4.584;2023-06-10T06:59:22;29.60;78.70
22974;DHT22;11653;50.848;4.584;2023-06-10T07:01:49;29.70;78.00
22974;DHT22;11653;50.848;4.584;2023-06-10T07:04:15;29.70;79.10
22974;DHT22;11653;50.848;4.584;2023-06-10T07:06:41;30.20;77.70
22974;DHT22;11653;50.848;4.584;2023-06-10T07:09:10;30.50;76.70
22974;DHT22;11653;50.848;4.584;2023-06-10T07:11:35;30.50;74.50
22974;DHT22;11653;50.848;4.584;2023-06-10T07:14:02;30.60;76.30
22974;DHT22;11653;50.848;4.584;2023-06-10T07:16:28;30.30;75.60
22974;DHT22;11653;50.848;4.584;2023-06-10T07:18:53;30.50;76.20
22974;DHT22;11653;50.848;4.584;2023-06-10T07:21:19;31.10;73.00
22974;DHT22;11653;50.848;4.584;2023-06-10T07:23:45;31.20;72.60
22974;DHT22;11653;50.848;4.584;2023-06-10T07:26:12;30.60;72.70
22974;DHT22;11653;50.848;4.584;2023-06-10T07:28:39;30.50;73.60
22974;DHT22;11653;50.848;4.584;2023-06-10T07:31:06;31.10;72.80
22974;DHT22;11653;50.848;4.584;2023-06-10T07:33:32;30.90;72.00
22974;DHT22;11653;50.848;4.584;2023-06-10T07:35:57;30.70;72.90
22974;DHT22;11653;50.848;4.584;2023-06-10T07:38:25;30.30;73.50
22974;DHT22;11653;50.848;4.584;2023-06-10T07:40:51;30.60;73.30
22974;DHT22;11653;50.848;4.584;2023-06-10T07:43:18;30.70;73.20
22974;DHT22;11653;50.848;4.584;2023-06-10T07:45:44;30.80;73.10
22974;DHT22;11653;50.848;4.584;2023-06-10T07:48:10;30.90;73.70
22974;DHT22;11653;50.848;4.584;2023-06-10T07:50:36;31.60;72.20
22974;DHT22;11653;50.848;4.584;2023-06-10T07:53:02;31.80;70.00
22974;DHT22;11653;50.848;4.584;2023-06-10T07:55:28;31.70;69.00
22974;DHT22;11653;50.848;4.584;2023-06-10T07:57:54;32.00;69.40
22974;DHT22;11653;50.848;4.584;2023-06-10T08:00:20;32.30;69.50
22974;DHT22;11653;50.848;4.584;2023-06-10T08:02:46;33.10;67.00
22974;DHT22;11653;50.848;4.584;2023-06-10T08:05:12;32.80;66.60
22974;DHT22;11653;50.848;4.584;2023-06-10T08:07:39;33.20;66.00
22974;DHT22;11653;50.848;4.584;2023-06-10T08:10:06;33.00;65.40
22974;DHT22;11653;50.848;4.584;2023-06-10T08:12:32;32.70;65.60
22974;DHT22;11653;50.848;4.584;2023-06-10T08:14:58;32.60;65.20
22974;DHT22;11653;50.848;4.584;2023-06-10T08:17:24;32.80;66.00
22974;DHT22;11653;50.848;4.584;2023-06-10T08:19:50;33.30;65.20
22974;DHT22;11653;50.848;4.584;2023-06-10T08:22:15;33.80;62.50
22974;DHT22;11653;50.848;4.584;2023-06-10T08:24:41;34.00;61.60
22974;DHT22;11653;50.848;4.584;2023-06-10T08:27:07;34.20;60.90
22974;DHT22;11653;50.848;4.584;2023-06-10T08:29:33;34.80;59.90
22974;DHT22;11653;50.848;4.584;2023-06-10T08:31:58;35.00;58.60
22974;DHT22;11653;50.848;4.584;2023-06-10T08:34:24;35.00;59.10
22974;DHT22;11653;50.848;4.584;2023-06-10T08:36:50;34.80;58.70
22974;DHT22;11653;50.848;4.584;2023-06-10T08:39:19;34.40;60.40
22974;DHT22;11653;50.848;4.584;2023-06-10T08:42:00;34.90;59.60
22974;DHT22;11653;50.848;4.584;2023-06-10T08:44:29;34.80;58.40
22974;DHT22;11653;50.848;4.584;2023-06-10T08:46:59;34.10;57.90
22974;DHT22;11653;50.848;4.584;2023-06-10T08:49:26;34.10;59.30
22974;DHT22;11653;50.848;4.584;2023-06-10T08:51:57;34.80;58.80
22974;DHT22;11653;50.848;4.584;2023-06-10T08:54:27;35.50;57.30
22974;DHT22;11653;50.848;4.584;2023-06-10T08:56:55;36.20;56.10
22974;DHT22;11653;50.848;4.584;2023-06-10T08:59:24;36.70;54.70
22974;DHT22;11653;50.848;4.584;2023-06-10T09:01:51;36.20;53.40
22974;DHT22;11653;50.848;4.584;2023-06-10T09:04:18;35.00;55.80
22974;DHT22;11653;50.848;4.584;2023-06-10T09:06:44;35.30;54.80
22974;DHT22;11653;50.848;4.584;2023-06-10T09:09:12;35.80;55.20
22974;DHT22;11653;50.848;4.584;2023-06-10T09:11:40;35.90;53.70
22974;DHT22;11653;50.848;4.584;2023-06-10T09:14:07;36.60;53.40
22974;DHT22;11653;50.848;4.584;2023-06-10T09:16:33;36.50;53.00
22974;DHT22;11653;50.848;4.584;2023-06-10T09:18:59;36.50;53.60
22974;DHT22;11653;50.848;4.584;2023-06-10T09:21:25;35.90;53.20
22974;DHT22;11653;50.848;4.584;2023-06-10T09:23:51;36.00;53.90
22974;DHT22;11653;50.848;4.584;2023-06-10T09:26:17;35.90;51.70
22974;DHT22;11653;50.848;4.584;2023-06-10T09:28:57;36.00;52.30
22974;DHT22;11653;50.848;4.584;2023-06-10T09:31:23;36.30;52.10
22974;DHT22;11653;50.848;4.584;2023-06-10T09:33:49;36.10;52.40
22974;DHT22;11653;50.848;4.584;2023-06-10T09:36:24;36.00;52.10
22974;DHT22;11653;50.848;4.584;2023-06-10T09:38:50;36.30;52.20
22974;DHT22;11653;50.848;4.584;2023-06-10T09:41:16;36.50;51.70
22974;DHT22;11653;50.848;4.584;2023-06-10T09:43:44;37.00;52.50
22974;DHT22;11653;50.848;4.584;2023-06-10T09:46:17;37.50;51.20
22974;DHT22;11653;50.848;4.584;2023-06-10T09:48:44;36.90;51.20
22974;DHT22;11653;50.848;4.584;2023-06-10T09:51:11;36.20;52.40
22974;DHT22;11653;50.848;4.584;2023-06-10T09:53:37;36.50;51.60
22974;DHT22;11653;50.848;4.584;2023-06-10T09:56:03;36.80;51.80
22974;DHT22;11653;50.848;4.584;2023-06-10T09:58:38;37.20;49.80
22974;DHT22;11653;50.848;4.584;2023-06-10T10:01:06;37.60;50.60
22974;DHT22;11653;50.848;4.584;2023-06-10T10:03:33;38.20;49.40
22974;DHT22;11653;50.848;4.584;2023-06-10T10:06:00;38.60;48.00
22974;DHT22;11653;50.848;4.584;2023-06-10T10:08:28;38.00;47.50
22974;DHT22;11653;50.848;4.584;2023-06-10T10:10:56;37.00;48.50
22974;DHT22;11653;50.848;4.584;2023-06-10T10:13:22;37.00;49.60
22974;DHT22;11653;50.848;4.584;2023-06-10T10:15:49;37.00;48.00
22974;DHT22;11653;50.848;4.584;2023-06-10T10:18:17;37.30;48.20
22974;DHT22;11653;50.848;4.584;2023-06-10T10:20:50;37.10;48.40
22974;DHT22;11653;50.848;4.584;2023-06-10T10:23:35;37.20;47.50
22974;DHT22;11653;50.848;4.584;2023-06-10T10:26:07;37.80;46.90
22974;DHT22;11653;50.848;4.584;2023-06-10T10:28:41;37.40;46.90
22974;DHT22;11653;50.848;4.584;2023-06-10T10:31:08;37.10;45.90
22974;DHT22;11653;50.848;4.584;2023-06-10T10:33:45;36.40;48.40
22974;DHT22;11653;50.848;4.584;2023-06-10T10:36:14;36.50;47.60
22974;DHT22;11653;50.848;4.584;2023-06-10T10:38:41;36.80;49.20
22974;DHT22;11653;50.848;4.584;2023-06-10T10:41:08;36.50;47.00
22974;DHT22;11653;50.848;4.584;2023-06-10T10:43:35;37.00;48.40
22974;DHT22;11653;50.848;4.584;2023-06-10T10:46:02;37.60;46.50
22974;DHT22;11653;50.848;4.584;2023-06-10T10:48:37;37.90;44.60
22974;DHT22;11653;50.848;4.584;2023-06-10T10:51:03;37.00;46.50
22974;DHT22;11653;50.848;4.584;2023-06-10T10:53:30;37.20;45.20
22974;DHT22;11653;50.848;4.584;2023-06-10T10:58:25;37.00;45.90
22974;DHT22;11653;50.848;4.584;2023-06-10T11:00:51;37.60;45.40
22974;DHT22;11653;50.848;4.584;2023-06-10T11:03:17;38.50;44.70
22974;DHT22;11653;50.848;4.584;2023-06-10T11:05:48;38.50;44.20
22974;DHT22;11653;50.848;4.584;2023-06-10T11:08:15;37.90;44.80
22974;DHT22;11653;50.848;4.584;2023-06-10T11:10:51;37.30;44.40
22974;DHT22;11653;50.848;4.584;2023-06-10T11:13:20;37.10;45.90
22974;DHT22;11653;50.848;4.584;2023-06-10T11:15:50;37.30;44.60
22974;DHT22;11653;50.848;4.584;2023-06-10T11:18:29;37.90;45.40
22974;DHT22;11653;50.848;4.584;2023-06-10T11:23:32;36.70;42.50
22974;DHT22;11653;50.848;4.584;2023-06-10T11:26:29;36.60;43.00
22974;DHT22;11653;50.848;4.584;2023-06-10T11:31:43;36.20;44.70
22974;DHT22;11653;50.848;4.584;2023-06-10T11:34:09;35.60;45.10
22974;DHT22;11653;50.848;4.584;2023-06-10T11:36:40;35.10;47.70
22974;DHT22;11653;50.848;4.584;2023-06-10T11:39:08;34.70;47.00
22974;DHT22;11653;50.848;4.584;2023-06-10T11:41:36;35.00;47.50
22974;DHT22;11653;50.848;4.584;2023-06-10T11:44:11;35.90;47.60
22974;DHT22;11653;50.848;4.584;2023-06-10T11:46:38;36.50;46.80
22974;DHT22;11653;50.848;4.584;2023-06-10T11:49:05;36.70;45.00
22974;DHT22;11653;50.848;4.584;2023-06-10T11:51:35;36.40;45.00
22974;DHT22;11653;50.848;4.584;2023-06-10T11:54:02;36.30;44.80
22974;DHT22;11653;50.848;4.584;2023-06-10T11:56:29;36.30;45.00
22974;DHT22;11653;50.848;4.584;2023-06-10T11:59:06;36.20;44.60
22974;DHT22;11653;50.848;4.584;2023-06-10T12:01:36;35.70;45.10
22974;DHT22;11653;50.848;4.584;2023-06-10T12:04:08;34.80;44.90
22974;DHT22;11653;50.848;4.584;2023-06-10T12:06:46;34.20;45.20
22974;DHT22;11653;50.848;4.584;2023-06-10T12:09:27;34.40;45.30
22974;DHT22;11653;50.848;4.584;2023-06-10T12:11:59;34.50;45.20
22974;DHT22;11653;50.848;4.584;2023-06-10T12:15:02;34.20;46.20
22974;DHT22;11653;50.848;4.584;2023-06-10T12:19:56;33.70;47.80
22974;DHT22;11653;50.848;4.584;2023-06-10T12:22:22;33.70;47.80
22974;DHT22;11653;50.848;4.584;2023-06-10T12:25:01;33.70;47.80
22974;DHT22;11653;50.848;4.584;2023-06-10T12:27:29;34.10;46.90
22974;DHT22;11653;50.848;4.584;2023-06-10T12:29:55;34.70;46.80
22974;DHT22;11653;50.848;4.584;2023-06-10T12:32:21;34.40;46.60
22974;DHT22;11653;50.848;4.584;2023-06-10T12:35:05;33.70;47.20
22974;DHT22;11653;50.848;4.584;2023-06-10T12:37:32;33.20;48.80
22974;DHT22;11653;50.848;4.584;2023-06-10T12:40:01;33.00;49.10
22974;DHT22;11653;50.848;4.584;2023-06-10T12:42:28;32.50;49.30
22974;DHT22;11653;50.848;4.584;2023-06-10T12:44:56;32.60;49.30
22974;DHT22;11653;50.848;4.584;2023-06-10T12:47:33;32.70;50.00
22974;DHT22;11653;50.848;4.584;2023-06-10T12:50:01;32.20;49.70
22974;DHT22;11653;50.848;4.584;2023-06-10T12:52:27;31.80;51.20
22974;DHT22;11653;50.848;4.584;2023-06-10T12:54:56;31.50;50.00
22974;DHT22;11653;50.848;4.584;2023-06-10T12:57:22;31.50;51.70
22974;DHT22;11653;50.848;4.584;2023-06-10T12:59:48;31.70;51.10
22974;DHT22;11653;50.848;4.584;2023-06-10T13:02:22;32.00;51.00
22974;DHT22;11653;50.848;4.584;2023-06-10T13:04:50;31.60;49.90
22974;DHT22;11653;50.848;4.584;2023-06-10T13:07:16;31.20;49.60
22974;DHT22;11653;50.848;4.584;2023-06-10T13:09:43;31.10;51.10
22974;DHT22;11653;50.848;4.584;2023-06-10T13:12:09;31.30;50.60
22974;DHT22;11653;50.848;4.584;2023-06-10T13:14:35;31.50;50.50
22974;DHT22;11653;50.848;4.584;2023-06-10T13:17:03;31.60;50.20
22974;DHT22;11653;50.848;4.584;2023-06-10T13:19:31;31.90;50.70
22974;DHT22;11653;50.848;4.584;2023-06-10T13:21:57;32.10;50.10
22974;DHT22;11653;50.848;4.584;2023-06-10T13:24:23;32.30;50.20
22974;DHT22;11653;50.848;4.584;2023-06-10T13:26:48;32.20;50.20
22974;DHT22;11653;50.848;4.584;2023-06-10T13:29:14;31.90;48.80
22974;DHT22;11653;50.848;4.584;2023-06-10T13:31:40;31.60;50.10
22974;DHT22;11653;50.848;4.584;2023-06-10T13:34:06;31.30;50.10
22974;DHT22;11653;50.848;4.584;2023-06-10T13:36:32;31.50;51.40
22974;DHT22;11653;50.848;4.584;2023-06-10T13:38:58;31.70;49.90
22974;DHT22;11653;50.848;4.584;2023-06-10T13:41:23;31.70;50.00
22974;DHT22;11653;50.848;4.584;2023-06-10T13:43:50;31.70;50.20
22974;DHT22;11653;50.848;4.584;2023-06-10T13:46:15;31.50;50.30
22974;DHT22;11653;50.848;4.584;2023-06-10T13:48:41;31.40;50.30
22974;DHT22;11653;50.848;4.584;2023-06-10T13:51:07;31.50;51.80
22974;DHT22;11653;50.848;4.584;2023-06-10T13:53:34;31.40;51.70
22974;DHT22;11653;50.848;4.584;2023-06-10T13:56:00;31.50;50.60
22974;DHT22;11653;50.848;4.584;2023-06-10T13:58:26;31.50;51.70
22974;DHT22;11653;50.848;4.584;2023-06-10T14:00:52;31.50;51.10
22974;DHT22;11653;50.848;4.584;2023-06-10T14:03:17;31.60;50.20
22974;DHT22;11653;50.848;4.584;2023-06-10T14:05:43;31.50;50.20
22974;DHT22;11653;50.848;4.584;2023-06-10T14:08:09;31.60;51.30
22974;DHT22;11653;50.848;4.584;2023-06-10T14:10:34;31.70;51.60
22974;DHT22;11653;50.848;4.584;2023-06-10T14:13:00;31.70;51.20
22974;DHT22;11653;50.848;4.584;2023-06-10T14:15:26;31.50;50.80
22974;DHT22;11653;50.848;4.584;2023-06-10T14:17:51;31.30;50.20
22974;DHT22;11653;50.848;4.584;2023-06-10T14:20:17;31.30;49.90
22974;DHT22;11653;50.848;4.584;2023-06-10T14:22:43;31.50;50.20
22974;DHT22;11653;50.848;4.584;2023-06-10T14:25:08;31.70;51.00
22974;DHT22;11653;50.848;4.584;2023-06-10T14:27:34;31.60;50.80
22974;DHT22;11653;50.848;4.584;2023-06-10T14:30:00;31.80;51.10
22974;DHT22;11653;50.848;4.584;2023-06-10T14:32:26;31.90;51.30
22974;DHT22;11653;50.848;4.584;2023-06-10T14:34:51;32.00;51.00
22974;DHT22;11653;50.848;4.584;2023-06-10T14:37:17;31.90;49.30
22974;DHT22;11653;50.848;4.584;2023-06-10T14:39:42;31.90;49.50
22974;DHT22;11653;50.848;4.584;2023-06-10T14:42:08;31.80;49.50
22974;DHT22;11653;50.848;4.584;2023-06-10T14:44:34;31.70;49.50
22974;DHT22;11653;50.848;4.584;2023-06-10T14:46:59;31.50;49.70
22974;DHT22;11653;50.848;4.584;2023-06-10T14:49:25;31.30;50.10
22974;DHT22;11653;50.848;4.584;2023-06-10T14:51:51;31.40;50.60
22974;DHT22;11653;50.848;4.584;2023-06-10T14:54:16;31.40;49.50
22974;DHT22;11653;50.848;4.584;2023-06-10T14:56:42;31.50;50.90
22974;DHT22;11653;50.848;4.584;2023-06-10T14:59:08;31.50;49.50
22974;DHT22;11653;50.848;4.584;2023-06-10T15:01:34;31.40;50.40
22974;DHT22;11653;50.848;4.584;2023-06-10T15:03:59;31.40;50.80
22974;DHT22;11653;50.848;4.584;2023-06-10T15:06:25;31.50;49.70
22974;DHT22;11653;50.848;4.584;2023-06-10T15:08:51;31.50;49.70
22974;DHT22;11653;50.848;4.584;2023-06-10T15:11:17;31.50;50.10
22974;DHT22;11653;50.848;4.584;2023-06-10T15:13:43;31.50;50.50
22974;DHT22;11653;50.848;4.584;2023-06-10T15:16:08;31.70;51.00
22974;DHT22;11653;50.848;4.584;2023-06-10T15:18:34;31.90;50.00
22974;DHT22;11653;50.848;4.584;2023-06-10T15:21:00;32.20;50.40
22974;DHT22;11653;50.848;4.584;2023-06-10T15:23:25;31.90;50.50
22974;DHT22;11653;50.848;4.584;2023-06-10T15:25:51;31.80;51.00
22974;DHT22;11653;50.848;4.584;2023-06-10T15:28:17;31.60;51.20
22974;DHT22;11653;50.848;4.584;2023-06-10T15:30:42;31.30;51.60
22974;DHT22;11653;50.848;4.584;2023-06-10T15:33:08;31.40;50.80
22974;DHT22;11653;50.848;4.584;2023-06-10T15:35:34;31.50;51.10
22974;DHT22;11653;50.848;4.584;2023-06-10T15:38:00;31.30;50.60
22974;DHT22;11653;50.848;4.584;2023-06-10T15:40:25;31.20;51.30
22974;DHT22;11653;50.848;4.584;2023-06-10T15:42:51;31.30;51.30
22974;DHT22;11653;50.848;4.584;2023-06-10T15:45:17;31.30;52.20